sensor_id;sensor_type;location;lat;lon;timestamp;pressure;altitude;pressure_sealevel;temperature;humidity
69772;BME280;57046;45.988;18.664;2022-07-22T21:28:46;100519.25;;;24.07;58.46
69772;BME280;57046;45.988;18.664;2022-07-22T21:31:11;100532.19;;;24.17;57.90
69772;BME280;57046;45.988;18.664;2022-07-22T21:33:53;100531.50;;;24.02;58.95
69772;BME280;57046;45.988;18.664;2022-07-22T21:36:18;100535.19;;;23.89;58.63
69772;BME280;57046;45.988;18.664;2022-07-22T21:38:43;100540.25;;;23.97;59.51
69772;BME280;57046;45.988;18.664;2022-07-22T21:41:09;100541.13;;;23.87;59.79
69772;BME280;57046;45.988;18.664;2022-07-22T21:43:34;100538.41;;;23.83;59.61
69772;BME280;57046;45.988;18.664;2022-07-22T21:46:00;100534.44;;;23.88;59.58
69772;BME280;57046;45.988;18.664;2022-07-22T21:48:25;100538.78;;;23.86;60.11
69772;BME280;57046;45.988;18.664;2022-07-22T21:50:50;100544.25;;;23.89;58.96
69772;BME280;57046;45.988;18.664;2022-07-22T21:53:17;100536.09;;;23.75;56.19
69772;BME280;57046;45.988;18.664;2022-07-22T21:55:42;100549.84;;;23.82;56.41
69772;BME280;57046;45.988;18.664;2022-07-22T21:58:08;100548.69;;;23.79;56.42
69772;BME280;57046;45.988;18.664;2022-07-22T22:00:33;100550.41;;;23.63;58.37
69772;BME280;57046;45.988;18.664;2022-07-22T22:02:58;100543.34;;;23.58;59.05
69772;BME280;57046;45.988;18.664;2022-07-22T22:05:24;100550.94;;;23.47;58.40
69772;BME280;57046;45.988;18.664;2022-07-22T22:07:49;100556.03;;;23.45;58.17
69772;BME280;57046;45.988;18.664;2022-07-22T22:10:14;100552.19;;;23.28;57.84
69772;BME280;57046;45.988;18.664;2022-07-22T22:12:40;100555.28;;;23.34;58.35
69772;BME280;57046;45.988;18.664;2022-07-22T22:15:05;100553.06;;;23.15;59.06
69772;BME280;57046;45.988;18.664;2022-07-22T22:17:31;100562.13;;;23.12;58.92
69772;BME280;57046;45.988;18.664;2022-07-22T22:19:56;100555.53;;;22.95;59.28
69772;BME280;57046;45.988;18.664;2022-07-22T22:22:22;100558.28;;;22.95;58.97
69772;BME280;57046;45.988;18.664;2022-07-22T22:24:47;100564.16;;;23.01;58.68
69772;BME280;57046;45.988;18.664;2022-07-22T22:27:13;100562.19;;;23.01;57.86
69772;BME280;57046;45.988;18.664;2022-07-22T22:29:38;100574.00;;;23.02;57.22
69772;BME280;57046;45.988;18.664;2022-07-22T22:32:04;100566.13;;;23.00;56.07
69772;BME280;57046;45.988;18.664;2022-07-22T22:34:29;100564.59;;;22.92;57.73
69772;BME280;57046;45.988;18.664;2022-07-22T22:36:55;100568.91;;;22.90;58.96
69772;BME280;57046;45.988;18.664;2022-07-22T22:39:20;100563.44;;;22.86;58.20
69772;BME280;57046;45.988;18.664;2022-07-22T22:41:45;100567.38;;;22.89;55.89
69772;BME280;57046;45.988;18.664;2022-07-22T22:44:11;100570.50;;;22.87;57.12
69772;BME280;57046;45.988;18.664;2022-07-22T22:46:36;100576.88;;;22.70;56.45
69772;BME280;57046;45.988;18.664;2022-07-22T22:49:01;100575.31;;;22.65;55.79
69772;BME280;57046;45.988;18.664;2022-07-22T22:51:27;100581.66;;;22.52;56.98
69772;BME280;57046;45.988;18.664;2022-07-22T22:53:52;100565.13;;;22.48;56.16
69772;BME280;57046;45.988;18.664;2022-07-22T22:56:18;100570.63;;;22.45;57.10
69772;BME280;57046;45.988;18.664;2022-07-22T22:58:43;100577.72;;;22.39;58.07
69772;BME280;57046;45.988;18.664;2022-07-22T23:01:08;100573.41;;;22.34;57.20
69772;BME280;57046;45.988;18.664;2022-07-22T23:03:34;100570.66;;;22.34;58.75
69772;BME280;57046;45.988;18.664;2022-07-22T23:05:59;100564.00;;;22.24;59.46
69772;BME280;57046;45.988;18.664;2022-07-22T23:08:24;100567.91;;;22.30;59.85
69772;BME280;57046;45.988;18.664;2022-07-22T23:10:50;100564.75;;;22.36;59.92
69772;BME280;57046;45.988;18.664;2022-07-22T23:13:15;100553.34;;;22.33;58.57
69772;BME280;57046;45.988;18.664;2022-07-22T23:15:41;100560.44;;;22.31;60.50
69772;BME280;57046;45.988;18.664;2022-07-22T23:18:06;100569.09;;;22.22;59.78
69772;BME280;57046;45.988;18.664;2022-07-22T23:20:31;100570.31;;;22.18;59.37
69772;BME280;57046;45.988;18.664;2022-07-22T23:22:57;100568.72;;;22.06;59.30
69772;BME280;57046;45.988;18.664;2022-07-22T23:25:22;100571.88;;;21.83;60.60
69772;BME280;57046;45.988;18.664;2022-07-22T23:27:47;100562.81;;;21.72;61.19
69772;BME280;57046;45.988;18.664;2022-07-22T23:30:13;100560.84;;;21.59;61.26
69772;BME280;57046;45.988;18.664;2022-07-22T23:32:38;100563.19;;;21.67;62.71
69772;BME280;57046;45.988;18.664;2022-07-22T23:35:04;100564.38;;;21.59;62.48
69772;BME280;57046;45.988;18.664;2022-07-22T23:37:29;100560.03;;;21.58;62.99
69772;BME280;57046;45.988;18.664;2022-07-22T23:39:54;100553.75;;;21.54;61.96
69772;BME280;57046;45.988;18.664;2022-07-22T23:42:20;100563.97;;;21.64;61.75
69772;BME280;57046;45.988;18.664;2022-07-22T23:44:45;100553.38;;;21.66;62.08
69772;BME280;57046;45.988;18.664;2022-07-22T23:47:10;100550.22;;;21.68;61.72
69772;BME280;57046;45.988;18.664;2022-07-22T23:49:36;100554.94;;;21.71;62.43
69772;BME280;57046;45.988;18.664;2022-07-22T23:52:01;100554.56;;;21.72;62.13
69772;BME280;57046;45.988;18.664;2022-07-22T23:54:26;100562.41;;;21.56;62.45
69772;BME280;57046;45.988;18.664;2022-07-22T23:56:52;100549.03;;;21.58;62.95
69772;BME280;57046;45.988;18.664;2022-07-22T23:59:17;100546.69;;;21.57;62.20
